Time;durP1;ratioP1;P1;durP2;ratioP2;P2;SDS_P1;SDS_P2;PMS_P1;PMS_P2;Temp;Humidity;BMP_temperature;BMP_pressure;BME280_temperature;BME280_humidity;BME280_pressure;Samples;Min_cycle;Max_cycle;Signal;HPM_P1;HPM_P2
2022/02/26 00:01:45;;;;;;;16.92;3.30;;;;;;;;;;5051159;28;20401;-84
2022/02/26 00:04:12;;;;;;;18.75;3.83;;;;;;;;;;5055116;28;20037;-84
2022/02/26 00:06:38;;;;;;;19.95;3.47;;;;;;;;;;5072812;28;20112;-84
2022/02/26 00:09:04;;;;;;;18.05;4.35;;;;;;;;;;5065153;28;20047;-83
2022/02/26 00:11:30;;;;;;;20.90;4.22;;;;;;;;;;5048381;28;20052;-83
2022/02/26 00:13:56;;;;;;;18.80;3.47;;;;;;;;;;5069173;28;20048;-84
2022/02/26 00:16:23;;;;;;;25.13;4.65;;;;;;;;;;5091285;28;20063;-82
2022/02/26 00:18:49;;;;;;;16.17;3.33;;;;;;;;;;5105764;28;20105;-82
2022/02/26 00:21:15;;;;;;;18.08;3.63;;;;;;;;;;5071229;28;20068;-82
2022/02/26 00:23:43;;;;;;;15.10;3.58;;;;;;;;;;5043004;28;20119;-84
2022/02/26 00:26:09;;;;;;;25.98;3.83;;;;;;;;;;5081215;28;20071;-83
2022/02/26 00:28:35;;;;;;;17.15;3.75;;;;;;;;;;5108594;28;20486;-83
2022/02/26 00:31:01;;;;;;;18.08;3.45;;;;;;;;;;5072645;28;20043;-83
2022/02/26 00:33:27;;;;;;;21.58;3.67;;;;;;;;;;5109018;28;20068;-83
2022/02/26 00:35:53;;;;;;;16.42;3.30;;;;;;;;;;5074248;28;20102;-83
2022/02/26 00:38:19;;;;;;;11.63;3.13;;;;;;;;;;5081467;28;20053;-82
2022/02/26 00:40:45;;;;;;;17.83;3.50;;;;;;;;;;5067408;28;20043;-83
2022/02/26 00:43:11;;;;;;;25.10;4.38;;;;;;;;;;5058472;28;20119;-82
2022/02/26 00:45:37;;;;;;;17.58;3.08;;;;;;;;;;5074981;28;20044;-83
2022/02/26 00:48:03;;;;;;;18.15;3.40;;;;;;;;;;5075136;28;20427;-83
2022/02/26 00:50:29;;;;;;;22.63;3.35;;;;;;;;;;5067408;28;20041;-83
2022/02/26 00:52:55;;;;;;;16.88;4.00;;;;;;;;;;5064939;28;20050;-83
2022/02/26 00:55:22;;;;;;;16.73;3.63;;;;;;;;;;5107516;28;20044;-83
2022/02/26 00:57:48;;;;;;;21.05;3.95;;;;;;;;;;5071930;28;20383;-83
2022/02/26 01:00:14;;;;;;;19.02;3.58;;;;;;;;;;5057944;28;20127;-83
2022/02/26 01:02:40;;;;;;;20.55;3.72;;;;;;;;;;5075187;28;20037;-83
2022/02/26 01:05:06;;;;;;;19.23;3.35;;;;;;;;;;5074890;28;20032;-83
2022/02/26 01:07:32;;;;;;;24.63;4.55;;;;;;;;;;5074877;28;20071;-83
2022/02/26 01:09:58;;;;;;;20.33;4.57;;;;;;;;;;5067982;28;20079;-84
2022/02/26 01:12:25;;;;;;;16.40;4.70;;;;;;;;;;5107894;28;20044;-83
2022/02/26 01:14:51;;;;;;;21.50;4.90;;;;;;;;;;5074423;28;20043;-84
2022/02/26 01:17:17;;;;;;;17.83;3.78;;;;;;;;;;5074348;28;20048;-83
2022/02/26 01:19:43;;;;;;;14.93;3.78;;;;;;;;;;5074223;28;20398;-84
2022/02/26 01:22:10;;;;;;;23.40;4.00;;;;;;;;;;5074903;28;20504;-83
2022/02/26 01:24:36;;;;;;;19.10;3.22;;;;;;;;;;5074747;28;20040;-83
2022/02/26 01:27:03;;;;;;;19.65;3.78;;;;;;;;;;5058230;28;20044;-84
2022/02/26 01:29:29;;;;;;;15.65;3.47;;;;;;;;;;5057682;28;20033;-84
2022/02/26 01:31:55;;;;;;;25.02;3.80;;;;;;;;;;5074051;28;20043;-84
2022/02/26 01:34:21;;;;;;;21.67;3.67;;;;;;;;;;5057777;28;20068;-84
2022/02/26 01:36:47;;;;;;;22.23;3.83;;;;;;;;;;5108445;28;20113;-84
2022/02/26 01:39:13;;;;;;;16.73;3.28;;;;;;;;;;5077252;28;20056;-84
2022/02/26 01:41:40;;;;;;;12.98;3.10;;;;;;;;;;5054272;28;20048;-83
2022/02/26 01:44:06;;;;;;;19.95;3.20;;;;;;;;;;5058074;28;20123;-83
2022/02/26 01:46:32;;;;;;;20.30;4.28;;;;;;;;;;5075721;28;20032;-83
2022/02/26 01:48:58;;;;;;;20.17;3.60;;;;;;;;;;5075394;28;20430;-83
2022/02/26 01:51:26;;;;;;;29.38;5.53;;;;;;;;;;5090811;28;20040;-84
2022/02/26 01:53:52;;;;;;;22.55;3.63;;;;;;;;;;5073955;28;20055;-83
2022/02/26 01:56:18;;;;;;;24.48;4.05;;;;;;;;;;5073933;28;20123;-84
2022/02/26 01:58:44;;;;;;;18.20;3.67;;;;;;;;;;5085439;28;20040;-84
2022/02/26 02:01:11;;;;;;;20.20;4.20;;;;;;;;;;5054092;28;20037;-84
2022/02/26 02:03:37;;;;;;;20.75;3.85;;;;;;;;;;5051451;28;21007;-84
2022/02/26 02:06:04;;;;;;;25.35;3.83;;;;;;;;;;5088440;28;20075;-83
2022/02/26 02:08:30;;;;;;;21.80;3.55;;;;;;;;;;5056863;28;20079;-83
2022/02/26 02:10:56;;;;;;;21.90;3.65;;;;;;;;;;5056516;28;20072;-84
2022/02/26 02:13:23;;;;;;;25.95;4.07;;;;;;;;;;5090140;28;20063;-84
2022/02/26 02:15:49;;;;;;;20.65;3.42;;;;;;;;;;5043726;28;20165;-83
2022/02/26 02:18:16;;;;;;;22.70;3.42;;;;;;;;;;5056439;28;20086;-84
2022/02/26 02:20:43;;;;;;;20.85;3.38;;;;;;;;;;5073255;28;20044;-83
2022/02/26 02:23:09;;;;;;;21.45;3.33;;;;;;;;;;5071065;28;20063;-83
2022/02/26 02:25:36;;;;;;;17.48;3.25;;;;;;;;;;5069197;28;20047;-84
2022/02/26 02:28:03;;;;;;;16.80;3.63;;;;;;;;;;5056229;28;20490;-84
2022/02/26 02:30:29;;;;;;;18.40;3.50;;;;;;;;;;5072363;28;20052;-84
2022/02/26 02:32:56;;;;;;;14.70;2.90;;;;;;;;;;5072933;28;20716;-83
2022/02/26 02:35:23;;;;;;;12.60;2.47;;;;;;;;;;5055862;28;20041;-84
2022/02/26 02:37:49;;;;;;;18.75;3.45;;;;;;;;;;5073018;28;20053;-83
2022/02/26 02:40:15;;;;;;;23.17;3.03;;;;;;;;;;5073183;28;20048;-84
2022/02/26 02:42:41;;;;;;;18.63;3.10;;;;;;;;;;5073365;28;20044;-84
2022/02/26 02:45:07;;;;;;;19.38;3.35;;;;;;;;;;5068610;28;20042;-84
2022/02/26 02:47:33;;;;;;;16.35;3.35;;;;;;;;;;5078343;28;20040;-83
2022/02/26 02:49:59;;;;;;;12.30;2.42;;;;;;;;;;5074945;28;20123;-84
2022/02/26 02:52:25;;;;;;;18.55;3.20;;;;;;;;;;5073623;28;20132;-84
2022/02/26 02:54:51;;;;;;;16.58;2.88;;;;;;;;;;5058565;28;20448;-84
2022/02/26 02:57:18;;;;;;;22.50;3.22;;;;;;;;;;5056341;28;20048;-84
2022/02/26 02:59:44;;;;;;;15.52;3.45;;;;;;;;;;5067928;28;20164;-84
2022/02/26 03:02:10;;;;;;;17.67;4.00;;;;;;;;;;5072444;28;20032;-84
2022/02/26 03:04:36;;;;;;;15.23;2.80;;;;;;;;;;5063893;28;20386;-84
2022/02/26 03:07:02;;;;;;;18.27;3.65;;;;;;;;;;5068301;28;20044;-84
2022/02/26 03:09:28;;;;;;;18.73;3.53;;;;;;;;;;5072413;28;20040;-84
2022/02/26 03:11:54;;;;;;;20.10;3.17;;;;;;;;;;5062844;28;20120;-84
2022/02/26 03:14:20;;;;;;;18.98;3.25;;;;;;;;;;5066877;28;20033;-84
2022/02/26 03:16:46;;;;;;;16.10;3.40;;;;;;;;;;5054975;28;20036;-84
2022/02/26 03:19:12;;;;;;;19.75;3.13;;;;;;;;;;5072554;28;20059;-83
2022/02/26 03:21:39;;;;;;;16.80;2.95;;;;;;;;;;5105419;28;20124;-83
2022/02/26 03:24:06;;;;;;;15.18;2.97;;;;;;;;;;5066801;28;20040;-84
2022/02/26 03:26:33;;;;;;;16.45;3.03;;;;;;;;;;5051759;28;20040;-84
2022/02/26 03:29:00;;;;;;;16.83;2.90;;;;;;;;;;5072298;28;20045;-84
2022/02/26 03:31:25;;;;;;;19.27;2.72;;;;;;;;;;5071767;28;20060;-84
2022/02/26 03:33:51;;;;;;;16.95;3.40;;;;;;;;;;5106149;28;20052;-84
2022/02/26 03:36:17;;;;;;;19.63;3.28;;;;;;;;;;5065454;28;20082;-83
2022/02/26 03:38:43;;;;;;;17.55;4.05;;;;;;;;;;5061913;28;20055;-84
2022/02/26 03:41:15;;;;;;;18.70;3.03;;;;;;;;;;5072018;28;20097;-84
2022/02/26 03:43:42;;;;;;;17.25;3.35;;;;;;;;;;5055703;28;20041;-84
2022/02/26 03:46:08;;;;;;;16.75;3.10;;;;;;;;;;5106199;28;20394;-84
2022/02/26 03:48:34;;;;;;;13.13;2.67;;;;;;;;;;5071777;28;20119;-84
2022/02/26 03:51:05;;;;;;;17.13;3.70;;;;;;;;;;5063038;28;20185;-84
2022/02/26 03:53:31;;;;;;;14.85;3.08;;;;;;;;;;5088319;28;20044;-84
2022/02/26 03:55:57;;;;;;;14.52;2.75;;;;;;;;;;5072177;28;20119;-84
2022/02/26 03:58:23;;;;;;;13.68;3.10;;;;;;;;;;5072007;28;20384;-84
2022/02/26 04:00:49;;;;;;;17.20;3.33;;;;;;;;;;5075798;28;20040;-84
2022/02/26 04:03:16;;;;;;;19.98;3.47;;;;;;;;;;5066112;28;20123;-84
2022/02/26 04:05:42;;;;;;;18.00;2.60;;;;;;;;;;5059163;28;20041;-84
2022/02/26 04:08:08;;;;;;;14.63;2.95;;;;;;;;;;5075176;28;20094;-84
2022/02/26 04:10:34;;;;;;;13.45;3.25;;;;;;;;;;5086077;28;20048;-84
2022/02/26 04:13:00;;;;;;;22.42;3.58;;;;;;;;;;5059503;28;20050;-85
2022/02/26 04:15:26;;;;;;;18.92;2.97;;;;;;;;;;5075910;28;20044;-85
2022/02/26 04:17:52;;;;;;;17.95;3.47;;;;;;;;;;5075696;28;20774;-84
2022/02/26 04:20:18;;;;;;;11.35;2.50;;;;;;;;;;5056057;28;20064;-84
2022/02/26 04:22:44;;;;;;;18.00;3.15;;;;;;;;;;5108534;28;20505;-84
2022/02/26 04:25:10;;;;;;;11.23;2.80;;;;;;;;;;5075585;28;20444;-84
2022/02/26 04:27:38;;;;;;;16.70;2.83;;;;;;;;;;5075573;28;20528;-84
2022/02/26 04:30:04;;;;;;;16.83;3.42;;;;;;;;;;5075694;28;20436;-84
2022/02/26 04:32:30;;;;;;;18.55;3.03;;;;;;;;;;5058603;28;20501;-84
2022/02/26 04:34:56;;;;;;;13.88;2.75;;;;;;;;;;5075819;28;20040;-84
2022/02/26 04:37:22;;;;;;;16.30;2.72;;;;;;;;;;5075329;28;20067;-84
2022/02/26 04:39:50;;;;;;;19.67;3.33;;;;;;;;;;5075240;28;20041;-85
2022/02/26 04:42:16;;;;;;;17.73;3.28;;;;;;;;;;5086601;28;20044;-85
2022/02/26 04:44:42;;;;;;;18.60;2.75;;;;;;;;;;5075324;28;20040;-84
2022/02/26 04:47:09;;;;;;;14.55;3.15;;;;;;;;;;5109285;28;20048;-85
2022/02/26 04:49:35;;;;;;;18.15;2.83;;;;;;;;;;5064643;28;20041;-84
2022/02/26 04:52:00;;;;;;;15.82;3.20;;;;;;;;;;5074805;28;20048;-84
2022/02/26 04:54:27;;;;;;;12.90;3.60;;;;;;;;;;5081236;28;20062;-84
2022/02/26 04:56:53;;;;;;;17.10;3.33;;;;;;;;;;5072890;28;20394;-85
2022/02/26 04:59:19;;;;;;;12.70;2.42;;;;;;;;;;5091642;28;20070;-84
2022/02/26 05:01:45;;;;;;;15.88;2.60;;;;;;;;;;5067551;28;20045;-84
2022/02/26 05:04:11;;;;;;;13.07;2.67;;;;;;;;;;5075129;28;20043;-85
2022/02/26 05:06:37;;;;;;;18.25;2.92;;;;;;;;;;5074903;28;20489;-85
2022/02/26 05:09:03;;;;;;;13.05;2.90;;;;;;;;;;5058262;28;20040;-84
2022/02/26 05:11:28;;;;;;;15.32;2.88;;;;;;;;;;5058060;28;20047;-85
2022/02/26 05:13:54;;;;;;;15.10;2.70;;;;;;;;;;5062842;28;20050;-84
2022/02/26 05:16:20;;;;;;;15.73;3.10;;;;;;;;;;5064768;28;20123;-84
2022/02/26 05:18:46;;;;;;;19.60;3.08;;;;;;;;;;5057958;28;20041;-84
2022/02/26 05:21:12;;;;;;;17.50;3.20;;;;;;;;;;5108837;28;20041;-84
2022/02/26 05:23:41;;;;;;;15.13;2.85;;;;;;;;;;5074806;28;20040;-84
2022/02/26 05:26:08;;;;;;;15.48;3.17;;;;;;;;;;5074604;28;20440;-84
2022/02/26 05:28:34;;;;;;;22.42;3.60;;;;;;;;;;5074655;28;20078;-84
2022/02/26 05:31:00;;;;;;;18.95;2.70;;;;;;;;;;5054753;28;20040;-84
2022/02/26 05:33:26;;;;;;;14.45;3.22;;;;;;;;;;5076865;28;20132;-83
2022/02/26 05:35:51;;;;;;;12.15;2.85;;;;;;;;;;5090674;28;20049;-84
2022/02/26 05:38:17;;;;;;;14.00;2.90;;;;;;;;;;5108104;28;20056;-84
2022/02/26 05:40:43;;;;;;;14.30;2.97;;;;;;;;;;5108230;28;20158;-83
2022/02/26 05:43:09;;;;;;;13.82;2.35;;;;;;;;;;5074291;28;20509;-84
2022/02/26 05:45:35;;;;;;;13.00;2.40;;;;;;;;;;5074159;28;20040;-83
2022/02/26 05:48:01;;;;;;;8.82;2.67;;;;;;;;;;5073880;28;20045;-84
2022/02/26 05:50:28;;;;;;;10.40;2.72;;;;;;;;;;5053025;28;20040;-83
2022/02/26 05:52:54;;;;;;;13.38;2.22;;;;;;;;;;5074298;28;20086;-84
2022/02/26 08:19:56;;;;;;;12.48;3.50;;;;;;;;;;5101585;23;20038;-86
2022/02/26 08:22:22;;;;;;;17.38;3.90;;;;;;;;;;4977929;28;20043;-87
2022/02/26 08:24:48;;;;;;;22.67;4.35;;;;;;;;;;4976357;28;20045;-87
2022/02/26 08:27:14;;;;;;;15.77;3.20;;;;;;;;;;4962646;28;20038;-86
2022/02/26 08:29:41;;;;;;;14.30;3.00;;;;;;;;;;4966722;28;20042;-86
2022/02/26 08:32:07;;;;;;;13.90;3.60;;;;;;;;;;4958708;28;20046;-86
2022/02/26 08:34:33;;;;;;;11.60;2.63;;;;;;;;;;4960340;28;20042;-85
2022/02/26 08:36:59;;;;;;;16.27;3.50;;;;;;;;;;4972262;28;20439;-86
2022/02/26 08:39:25;;;;;;;15.20;3.95;;;;;;;;;;4975233;28;20518;-86
2022/02/26 08:41:54;;;;;;;16.10;4.20;;;;;;;;;;4977097;28;20042;-86
2022/02/26 08:44:20;;;;;;;12.85;3.72;;;;;;;;;;4975129;28;20038;-86
2022/02/26 08:46:46;;;;;;;12.70;3.15;;;;;;;;;;4977866;28;20055;-85
2022/02/26 08:49:12;;;;;;;13.82;3.30;;;;;;;;;;4992217;28;20072;-85
2022/02/26 08:51:38;;;;;;;16.17;3.70;;;;;;;;;;4968023;28;20042;-84
2022/02/26 08:54:04;;;;;;;15.63;3.55;;;;;;;;;;4962561;28;20045;-84
2022/02/26 08:56:30;;;;;;;15.93;3.80;;;;;;;;;;4979244;28;20073;-85
2022/02/26 08:58:57;;;;;;;23.67;7.05;;;;;;;;;;4978791;28;20050;-85
2022/02/26 09:01:24;;;;;;;19.67;5.38;;;;;;;;;;4982020;28;20117;-85
2022/02/26 09:03:50;;;;;;;16.40;4.57;;;;;;;;;;4983955;28;20555;-85
2022/02/26 09:06:17;;;;;;;20.30;5.55;;;;;;;;;;4960778;28;20038;-83
2022/02/26 09:08:43;;;;;;;17.15;4.53;;;;;;;;;;4978846;28;20165;-85
2022/02/26 09:11:10;;;;;;;20.63;5.57;;;;;;;;;;4979585;28;20161;-85
2022/02/26 09:13:42;;;;;;;23.35;4.47;;;;;;;;;;4970107;28;20051;-84
2022/02/26 09:16:09;;;;;;;15.88;4.60;;;;;;;;;;4957059;28;20048;-85
2022/02/26 09:18:35;;;;;;;17.20;4.60;;;;;;;;;;4975244;28;20077;-85
2022/02/26 09:21:01;;;;;;;19.83;4.32;;;;;;;;;;4978306;28;20053;-84
2022/02/26 09:23:31;;;;;;;14.43;4.63;;;;;;;;;;4949844;28;20034;-84
2022/02/26 09:25:57;;;;;;;18.60;4.85;;;;;;;;;;4978384;28;20034;-84
2022/02/26 09:28:23;;;;;;;19.85;3.50;;;;;;;;;;4972117;28;20042;-84
2022/02/26 09:30:49;;;;;;;14.73;3.00;;;;;;;;;;4985863;28;20037;-84
2022/02/26 09:33:15;;;;;;;17.35;3.63;;;;;;;;;;4991757;28;20049;-84
2022/02/26 09:35:41;;;;;;;14.75;3.53;;;;;;;;;;4989922;28;20046;-84
2022/02/26 09:38:07;;;;;;;20.98;4.07;;;;;;;;;;4984276;28;20551;-84
2022/02/26 09:40:33;;;;;;;15.55;3.80;;;;;;;;;;4975813;28;20044;-84
2022/02/26 09:42:59;;;;;;;15.18;3.85;;;;;;;;;;4978871;28;20038;-84
2022/02/26 09:45:25;;;;;;;20.55;3.38;;;;;;;;;;4978523;28;20046;-85
2022/02/26 09:47:51;;;;;;;16.27;3.10;;;;;;;;;;4978465;28;20343;-84
2022/02/26 09:50:18;;;;;;;15.27;3.60;;;;;;;;;;4978281;28;20046;-84
2022/02/26 09:52:46;;;;;;;22.42;4.60;;;;;;;;;;4984932;28;20049;-85
2022/02/26 09:55:12;;;;;;;19.13;3.33;;;;;;;;;;4978347;28;20476;-85
2022/02/26 09:57:38;;;;;;;20.13;4.40;;;;;;;;;;4993627;28;20041;-85
2022/02/26 10:00:07;;;;;;;20.67;3.60;;;;;;;;;;4961840;28;20129;-84
2022/02/26 10:02:34;;;;;;;18.27;3.78;;;;;;;;;;4978510;28;20050;-83
2022/02/26 10:05:01;;;;;;;22.02;3.33;;;;;;;;;;4977340;28;20636;-83
2022/02/26 10:07:28;;;;;;;16.55;2.80;;;;;;;;;;4977113;28;20038;-84
2022/02/26 10:09:54;;;;;;;14.57;3.42;;;;;;;;;;4961622;28;20066;-84
2022/02/26 10:12:20;;;;;;;17.45;3.47;;;;;;;;;;4961546;28;20093;-84
2022/02/26 10:14:47;;;;;;;15.63;2.78;;;;;;;;;;4971225;28;20070;-84
2022/02/26 10:17:23;;;;;;;19.38;3.40;;;;;;;;;;4977923;28;20100;-84
2022/02/26 10:19:49;;;;;;;16.00;3.05;;;;;;;;;;4988924;28;20054;-84
2022/02/26 10:22:15;;;;;;;14.05;2.67;;;;;;;;;;4965931;28;20050;-84
2022/02/26 10:24:41;;;;;;;15.48;2.95;;;;;;;;;;4977175;28;20042;-84
2022/02/26 10:27:11;;;;;;;12.65;2.58;;;;;;;;;;4961020;28;20399;-83
2022/02/26 10:29:39;;;;;;;13.65;2.47;;;;;;;;;;4990903;28;20043;-84
2022/02/26 10:32:06;;;;;;;17.33;3.17;;;;;;;;;;4977488;28;20511;-84
2022/02/26 10:34:32;;;;;;;9.93;2.33;;;;;;;;;;4964538;28;20042;-83
2022/02/26 10:37:06;;;;;;;9.82;2.15;;;;;;;;;;4960807;28;20676;-83
2022/02/26 10:39:37;;;;;;;14.10;2.53;;;;;;;;;;4971499;28;20411;-80
2022/02/26 10:42:04;;;;;;;14.85;2.20;;;;;;;;;;4976111;28;20043;-81
2022/02/26 10:44:30;;;;;;;15.32;2.85;;;;;;;;;;4960779;28;20069;-81
2022/02/26 10:47:10;;;;;;;10.70;2.38;;;;;;;;;;4976353;28;20117;-81
2022/02/26 10:49:39;;;;;;;13.50;2.80;;;;;;;;;;4951266;28;20069;-79
2022/02/26 10:52:09;;;;;;;14.40;2.88;;;;;;;;;;4959695;28;20448;-81
2022/02/26 10:54:36;;;;;;;14.57;2.40;;;;;;;;;;4976541;28;20046;-81
2022/02/26 10:57:06;;;;;;;11.00;2.35;;;;;;;;;;4974132;28;20061;-81
2022/02/26 10:59:41;;;;;;;12.02;2.70;;;;;;;;;;4975064;28;20038;-81
2022/02/26 11:02:10;;;;;;;14.05;2.40;;;;;;;;;;4972504;28;20049;-79
2022/02/26 11:04:36;;;;;;;11.68;2.38;;;;;;;;;;4971080;28;20136;-79
2022/02/26 11:07:03;;;;;;;13.25;2.30;;;;;;;;;;4978462;28;20038;-79
2022/02/26 11:09:30;;;;;;;14.35;2.75;;;;;;;;;;4973559;28;20627;-79
2022/02/26 11:11:57;;;;;;;9.95;3.13;;;;;;;;;;4973885;28;20392;-80
2022/02/26 11:14:24;;;;;;;12.50;2.22;;;;;;;;;;4977646;28;20521;-79
2022/02/26 11:16:52;;;;;;;13.38;2.38;;;;;;;;;;4968271;28;20046;-79
2022/02/26 11:19:23;;;;;;;10.43;1.92;;;;;;;;;;4970692;28;20503;-80
2022/02/26 11:21:49;;;;;;;13.80;3.00;;;;;;;;;;4955960;28;20054;-79
2022/02/26 11:24:16;;;;;;;10.00;2.03;;;;;;;;;;4961231;28;20045;-79
2022/02/26 11:26:43;;;;;;;14.07;2.35;;;;;;;;;;4973853;28;20775;-79
2022/02/26 11:29:10;;;;;;;9.55;2.10;;;;;;;;;;4978471;28;20050;-80
2022/02/26 11:31:46;;;;;;;13.63;2.22;;;;;;;;;;4973985;28;20481;-79
2022/02/26 11:34:12;;;;;;;13.40;2.33;;;;;;;;;;4973957;28;20045;-79
2022/02/26 11:36:49;;;;;;;12.57;2.05;;;;;;;;;;4974249;28;20038;-80
2022/02/26 11:39:30;;;;;;;10.32;1.77;;;;;;;;;;4972542;28;20042;-80
2022/02/26 11:42:14;;;;;;;10.35;1.95;;;;;;;;;;4974528;28;20189;-82
2022/02/26 11:44:42;;;;;;;12.48;2.40;;;;;;;;;;4977265;28;20042;-81
2022/02/26 11:47:12;;;;;;;8.23;2.53;;;;;;;;;;4950866;28;20392;-81
2022/02/26 11:49:38;;;;;;;15.40;2.47;;;;;;;;;;4957426;28;20585;-81
2022/02/26 11:52:05;;;;;;;13.30;2.65;;;;;;;;;;4959078;28;20078;-81
2022/02/26 11:54:31;;;;;;;10.55;2.20;;;;;;;;;;4969058;28;20043;-81
2022/02/26 11:56:58;;;;;;;12.75;2.90;;;;;;;;;;4960418;28;20053;-81
2022/02/26 11:59:36;;;;;;;12.60;2.45;;;;;;;;;;4948038;28;20039;-81
2022/02/26 12:02:04;;;;;;;8.40;2.03;;;;;;;;;;4963903;28;20061;-81
2022/02/26 12:04:43;;;;;;;9.05;1.90;;;;;;;;;;4963880;28;20038;-81
2022/02/26 12:07:09;;;;;;;16.23;2.22;;;;;;;;;;4967760;28;20380;-81
2022/02/26 12:09:54;;;;;;;11.27;1.67;;;;;;;;;;4968128;28;20121;-80
2022/02/26 12:12:30;;;;;;;15.93;2.72;;;;;;;;;;4964900;28;20222;-81
2022/02/26 12:14:57;;;;;;;9.32;2.10;;;;;;;;;;4967405;28;20128;-81
2022/02/26 12:17:23;;;;;;;9.40;1.70;;;;;;;;;;4968988;28;20536;-81
2022/02/26 12:19:54;;;;;;;15.18;3.13;;;;;;;;;;4954029;28;20126;-81
2022/02/26 12:22:21;;;;;;;15.13;2.50;;;;;;;;;;4967490;28;20046;-81
2022/02/26 12:24:52;;;;;;;13.15;2.28;;;;;;;;;;4976646;28;20069;-81
2022/02/26 12:27:35;;;;;;;11.10;2.25;;;;;;;;;;4978318;28;20065;-82
2022/02/26 12:30:14;;;;;;;11.77;1.80;;;;;;;;;;4964191;28;20053;-81
2022/02/26 12:32:56;;;;;;;14.30;2.75;;;;;;;;;;4960215;28;20043;-81
2022/02/26 12:35:24;;;;;;;11.43;2.08;;;;;;;;;;4965453;28;20045;-81
2022/02/26 12:37:51;;;;;;;12.32;2.35;;;;;;;;;;4949741;28;20536;-81
2022/02/26 12:40:21;;;;;;;12.13;2.17;;;;;;;;;;4970274;28;20046;-81
2022/02/26 12:42:48;;;;;;;10.38;2.10;;;;;;;;;;4972590;28;20038;-81
2022/02/26 12:45:15;;;;;;;12.15;2.22;;;;;;;;;;4957824;28;20045;-81
2022/02/26 12:47:42;;;;;;;13.15;2.55;;;;;;;;;;4972456;28;20487;-81
2022/02/26 12:50:09;;;;;;;10.02;2.17;;;;;;;;;;4949043;28;20405;-81
2022/02/26 12:52:38;;;;;;;11.18;2.33;;;;;;;;;;4964329;28;20030;-81
2022/02/26 12:55:17;;;;;;;10.88;1.90;;;;;;;;;;4966524;28;20054;-81
2022/02/26 12:57:43;;;;;;;15.45;2.90;;;;;;;;;;4981011;28;20030;-81
2022/02/26 13:00:11;;;;;;;13.73;2.50;;;;;;;;;;4961351;28;20038;-80
2022/02/26 13:02:51;;;;;;;10.23;2.20;;;;;;;;;;4958887;28;20073;-80
2022/02/26 13:05:17;;;;;;;11.48;2.83;;;;;;;;;;4974231;28;20046;-81
2022/02/26 13:07:44;;;;;;;7.13;1.75;;;;;;;;;;4950921;28;20089;-81
2022/02/26 13:10:10;;;;;;;10.55;1.85;;;;;;;;;;4970020;28;20038;-81
2022/02/26 13:12:37;;;;;;;10.93;2.03;;;;;;;;;;4967941;28;20134;-81
2022/02/26 13:15:08;;;;;;;8.23;2.47;;;;;;;;;;4965129;28;20053;-81
2022/02/26 13:17:35;;;;;;;16.58;2.15;;;;;;;;;;4969788;28;20070;-81
2022/02/26 13:20:04;;;;;;;12.60;2.47;;;;;;;;;;4974275;28;20054;-81
2022/02/26 13:22:43;;;;;;;9.43;2.45;;;;;;;;;;4969992;28;20178;-81
2022/02/26 13:25:09;;;;;;;11.20;2.20;;;;;;;;;;4977072;28;20057;-81
2022/02/26 13:27:35;;;;;;;7.75;1.90;;;;;;;;;;4971961;28;20042;-81
2022/02/26 13:30:01;;;;;;;8.25;2.03;;;;;;;;;;4971428;28;20042;-81
2022/02/26 13:32:29;;;;;;;11.05;2.80;;;;;;;;;;4971324;28;20037;-81
2022/02/26 13:34:55;;;;;;;12.63;2.75;;;;;;;;;;4974530;28;20050;-81
2022/02/26 13:37:22;;;;;;;9.30;2.50;;;;;;;;;;4954739;28;20038;-81
2022/02/26 13:39:49;;;;;;;10.55;2.78;;;;;;;;;;4970254;28;20457;-81
2022/02/26 13:42:19;;;;;;;13.68;2.17;;;;;;;;;;4965022;28;20034;-81
2022/02/26 13:44:50;;;;;;;10.02;2.55;;;;;;;;;;4967809;28;20047;-81
2022/02/26 13:47:16;;;;;;;10.23;1.95;;;;;;;;;;4957444;28;20088;-81
2022/02/26 13:49:43;;;;;;;11.82;2.13;;;;;;;;;;4975174;28;20752;-81
2022/02/26 13:52:10;;;;;;;11.30;2.13;;;;;;;;;;4974022;28;20049;-80
2022/02/26 13:54:41;;;;;;;9.18;2.15;;;;;;;;;;4949987;28;20046;-81
2022/02/26 13:57:15;;;;;;;9.07;2.00;;;;;;;;;;4976130;28;20053;-81
2022/02/26 13:59:41;;;;;;;7.43;1.67;;;;;;;;;;4956002;28;20074;-80
2022/02/26 14:02:07;;;;;;;7.65;1.52;;;;;;;;;;4966558;28;20100;-80
2022/02/26 14:04:41;;;;;;;7.97;1.48;;;;;;;;;;4973247;28;20053;-80
2022/02/26 14:07:07;;;;;;;9.65;2.10;;;;;;;;;;4972505;28;20046;-80
2022/02/26 14:09:39;;;;;;;11.02;2.30;;;;;;;;;;4973143;28;20091;-80
2022/02/26 14:12:07;;;;;;;9.73;2.17;;;;;;;;;;4966344;28;20133;-80
2022/02/26 14:14:34;;;;;;;10.48;2.25;;;;;;;;;;4971064;28;20038;-80
2022/02/26 14:17:10;;;;;;;8.77;1.80;;;;;;;;;;4969320;28;20105;-80
2022/02/26 14:19:41;;;;;;;9.63;1.77;;;;;;;;;;4969802;28;20116;-80
2022/02/26 14:22:08;;;;;;;11.32;2.38;;;;;;;;;;4967480;28;20050;-80
2022/02/26 14:24:38;;;;;;;11.20;1.70;;;;;;;;;;4967943;28;20058;-80
2022/02/26 14:27:04;;;;;;;7.60;1.75;;;;;;;;;;4967004;28;20093;-80
2022/02/26 14:29:31;;;;;;;10.93;2.97;;;;;;;;;;4949743;28;20077;-80
2022/02/26 14:32:01;;;;;;;8.57;1.90;;;;;;;;;;4972162;28;20050;-80
2022/02/26 14:34:28;;;;;;;7.93;1.50;;;;;;;;;;4967890;28;20545;-80
2022/02/26 14:36:54;;;;;;;10.27;1.58;;;;;;;;;;4967894;28;20144;-80
2022/02/26 14:39:20;;;;;;;7.15;2.10;;;;;;;;;;4971343;28;20042;-81
2022/02/26 14:41:50;;;;;;;12.25;1.88;;;;;;;;;;4951855;28;20473;-80
2022/02/26 14:44:16;;;;;;;11.00;1.70;;;;;;;;;;4949165;28;20030;-80
2022/02/26 14:46:42;;;;;;;10.00;2.03;;;;;;;;;;4970638;28;20045;-80
2022/02/26 14:49:08;;;;;;;11.80;2.38;;;;;;;;;;4968211;28;20046;-80
2022/02/26 14:51:34;;;;;;;10.25;3.00;;;;;;;;;;4967796;28;20133;-80
2022/02/26 14:54:00;;;;;;;11.15;2.00;;;;;;;;;;4953875;28;20164;-80
2022/02/26 14:56:26;;;;;;;8.20;1.70;;;;;;;;;;4944707;28;20137;-80
2022/02/26 14:58:53;;;;;;;11.65;1.90;;;;;;;;;;4962262;28;20051;-80
2022/02/26 15:01:19;;;;;;;12.43;2.13;;;;;;;;;;4975220;28;20070;-80
2022/02/26 15:03:46;;;;;;;10.63;1.80;;;;;;;;;;4973288;28;20485;-80
2022/02/26 15:06:13;;;;;;;8.38;1.35;;;;;;;;;;4966848;28;20046;-80
2022/02/26 15:08:38;;;;;;;9.68;1.52;;;;;;;;;;4962864;28;20038;-80
2022/02/26 15:11:04;;;;;;;9.32;1.77;;;;;;;;;;4970748;28;20064;-80
2022/02/26 15:13:30;;;;;;;8.88;1.50;;;;;;;;;;4968316;28;20053;-79
2022/02/26 15:15:57;;;;;;;8.85;1.85;;;;;;;;;;4969622;28;20074;-80
2022/02/26 15:18:23;;;;;;;6.45;1.80;;;;;;;;;;4951835;28;20069;-80
2022/02/26 15:20:48;;;;;;;8.90;2.17;;;;;;;;;;4968466;28;20488;-79
2022/02/26 15:23:14;;;;;;;10.90;1.80;;;;;;;;;;4975765;28;20372;-80
2022/02/26 15:25:40;;;;;;;11.75;2.13;;;;;;;;;;4967916;28;20038;-80
2022/02/26 15:28:06;;;;;;;6.25;1.50;;;;;;;;;;4962095;28;20043;-79
2022/02/26 15:30:33;;;;;;;8.20;1.90;;;;;;;;;;4966656;28;20754;-79
2022/02/26 15:32:59;;;;;;;11.20;2.00;;;;;;;;;;4965484;28;20499;-79
2022/02/26 15:35:25;;;;;;;9.85;2.03;;;;;;;;;;4969235;28;20074;-79
2022/02/26 15:37:51;;;;;;;7.63;2.30;;;;;;;;;;4948667;28;20569;-79
2022/02/26 15:40:17;;;;;;;12.02;2.10;;;;;;;;;;4967127;28;20046;-79
2022/02/26 15:42:43;;;;;;;7.38;1.63;;;;;;;;;;4955137;28;20039;-79
2022/02/26 15:45:09;;;;;;;7.88;2.28;;;;;;;;;;4950961;28;20042;-79
2022/02/26 15:47:36;;;;;;;8.35;1.80;;;;;;;;;;4964497;28;20439;-79
2022/02/26 15:50:02;;;;;;;13.48;1.95;;;;;;;;;;4950761;28;20074;-79
2022/02/26 15:52:28;;;;;;;7.70;1.48;;;;;;;;;;4970654;28;20049;-79
2022/02/26 15:54:54;;;;;;;7.80;1.70;;;;;;;;;;4969244;28;20034;-79
2022/02/26 15:57:21;;;;;;;8.40;1.30;;;;;;;;;;4954699;28;20042;-79
2022/02/26 15:59:46;;;;;;;7.40;1.88;;;;;;;;;;4972342;28;20152;-80
2022/02/26 16:02:12;;;;;;;10.38;2.35;;;;;;;;;;4955823;28;20436;-79
2022/02/26 16:04:38;;;;;;;7.05;1.73;;;;;;;;;;4958112;28;20042;-79
2022/02/26 16:07:05;;;;;;;11.63;2.05;;;;;;;;;;4973223;28;20104;-79
2022/02/26 16:09:31;;;;;;;16.15;4.82;;;;;;;;;;4958185;28;20530;-79
2022/02/26 16:11:57;;;;;;;20.27;10.88;;;;;;;;;;4962827;28;20038;-79
2022/02/26 16:14:23;;;;;;;15.88;6.65;;;;;;;;;;4966500;28;20042;-79
2022/02/26 16:16:49;;;;;;;9.60;3.53;;;;;;;;;;4970002;28;20060;-79
2022/02/26 16:19:15;;;;;;;11.05;2.75;;;;;;;;;;4975541;28;20370;-79
2022/02/26 16:21:41;;;;;;;11.05;2.53;;;;;;;;;;4939270;23;20411;-77
2022/02/26 16:24:07;;;;;;;11.25;2.35;;;;;;;;;;4956312;28;20043;-77
2022/02/26 16:26:33;;;;;;;7.80;1.90;;;;;;;;;;4937745;28;20039;-77
2022/02/26 16:28:59;;;;;;;9.20;1.70;;;;;;;;;;4954282;28;20047;-77
2022/02/26 16:31:25;;;;;;;8.32;2.28;;;;;;;;;;4953887;28;20043;-77
2022/02/26 16:33:50;;;;;;;7.20;2.13;;;;;;;;;;4950463;28;20045;-77
2022/02/26 16:36:17;;;;;;;11.75;1.85;;;;;;;;;;4951920;28;20137;-77
2022/02/26 16:38:43;;;;;;;11.20;1.92;;;;;;;;;;4949163;28;21442;-77
2022/02/26 16:41:10;;;;;;;9.75;2.33;;;;;;;;;;4947392;28;20138;-77
2022/02/26 16:43:36;;;;;;;13.02;1.92;;;;;;;;;;4943361;28;20134;-77
2022/02/26 16:46:02;;;;;;;7.47;1.60;;;;;;;;;;4946945;28;20133;-77
2022/02/26 16:48:28;;;;;;;7.10;1.83;;;;;;;;;;4937876;28;20054;-77
2022/02/26 16:50:54;;;;;;;11.05;2.35;;;;;;;;;;4951267;28;20057;-77
2022/02/26 16:53:20;;;;;;;14.15;1.95;;;;;;;;;;4945902;28;20496;-77
2022/02/26 16:55:46;;;;;;;5.28;1.40;;;;;;;;;;4951110;28;20050;-77